createdAt,value
2023-01-08T00:00:57.141Z,82.40
2023-01-08T00:02:59.997Z,82.30
2023-01-08T00:05:02.827Z,82.20
2023-01-08T00:07:05.502Z,82.60
2023-01-08T00:09:08.182Z,82.10
2023-01-08T00:11:12.674Z,82.20
2023-01-08T00:13:15.346Z,82.00
2023-01-08T00:15:18.173Z,82.60
2023-01-08T00:17:20.812Z,81.90
2023-01-08T00:19:23.520Z,82.00
2023-01-08T00:21:26.522Z,81.90
2023-01-08T00:23:29.505Z,82.00
2023-01-08T00:25:33.338Z,81.90
2023-01-08T00:27:37.431Z,81.90
2023-01-08T00:29:40.163Z,81.80
2023-01-08T00:31:42.953Z,81.70
2023-01-08T00:33:45.690Z,81.90
2023-01-08T00:35:48.419Z,81.90
2023-01-08T00:37:51.334Z,82.10
2023-01-08T00:39:54.064Z,82.10
2023-01-08T00:41:56.745Z,82.20
2023-01-08T00:44:00.740Z,81.90
2023-01-08T00:46:03.648Z,81.90
2023-01-08T00:48:07.186Z,82.00
2023-01-08T00:50:10.771Z,81.90
2023-01-08T00:52:13.669Z,81.90
2023-01-08T00:54:16.376Z,82.10
2023-01-08T00:56:19.061Z,82.10
2023-01-08T00:58:21.746Z,82.00
2023-01-08T01:00:26.103Z,81.90
2023-01-08T01:02:29.154Z,82.00
2023-01-08T01:04:31.891Z,82.20
2023-01-08T01:06:34.725Z,82.00
2023-01-08T01:08:37.383Z,82.20
2023-01-08T01:10:40.354Z,82.20
2023-01-08T01:12:43.375Z,82.20
2023-01-08T01:14:46.098Z,82.30
2023-01-08T01:16:50.233Z,82.30
2023-01-08T01:18:54.500Z,82.20
2023-01-08T01:20:57.221Z,82.40
2023-01-08T01:22:59.894Z,82.40
2023-01-08T01:25:02.819Z,82.30
2023-01-08T01:27:05.552Z,82.10
2023-01-08T01:29:08.249Z,82.20
2023-01-08T01:31:12.892Z,82.20
2023-01-08T01:33:16.954Z,82.40
2023-01-08T01:35:19.623Z,82.10
2023-01-08T01:37:22.375Z,82.10
2023-01-08T01:39:25.220Z,82.20
2023-01-08T01:41:30.951Z,82.40
2023-01-08T01:43:41.609Z,82.20
2023-01-08T01:45:44.447Z,82.30
2023-01-08T01:47:49.267Z,82.50
2023-01-08T01:49:58.781Z,82.60
2023-01-08T01:52:04.399Z,82.30
2023-01-08T01:54:10.573Z,82.50
2023-01-08T01:56:13.428Z,82.40
2023-01-08T01:58:18.594Z,82.50
2023-01-08T02:00:23.169Z,82.30
2023-01-08T02:02:26.068Z,82.40
2023-01-08T02:04:28.928Z,82.50
2023-01-08T02:06:38.824Z,82.50
2023-01-08T02:08:49.346Z,82.60
2023-01-08T02:10:57.686Z,82.70
2023-01-08T02:13:05.743Z,82.60
2023-01-08T02:15:14.891Z,82.50
2023-01-08T02:17:23.213Z,82.50
2023-01-08T02:19:38.596Z,82.40
2023-01-08T02:21:54.511Z,82.70
2023-01-08T02:24:04.062Z,82.40
2023-01-08T02:26:14.381Z,82.10
2023-01-08T02:28:18.057Z,82.00
2023-01-08T02:30:20.921Z,82.30
2023-01-08T02:32:26.987Z,82.20
2023-01-08T02:34:32.009Z,82.40
2023-01-08T02:36:38.931Z,82.20
2023-01-08T02:38:51.673Z,82.30
2023-01-08T02:40:59.776Z,82.40
2023-01-08T02:43:11.689Z,82.50
2023-01-08T02:45:25.030Z,82.50
2023-01-08T02:47:32.504Z,82.50
2023-01-08T02:49:40.354Z,82.40
2023-01-08T02:51:46.513Z,82.80
2023-01-08T02:53:52.396Z,82.30
2023-01-08T02:55:59.368Z,82.60
2023-01-08T02:58:04.346Z,82.50
2023-01-08T03:00:09.057Z,82.80
2023-01-08T03:02:12.948Z,82.80
2023-01-08T03:04:20.493Z,82.80
2023-01-08T03:06:24.001Z,82.90
2023-01-08T03:08:27.974Z,83.00
2023-01-08T03:10:31.534Z,83.10
2023-01-08T03:12:46.223Z,82.90
2023-01-08T03:14:56.916Z,82.80
2023-01-08T03:17:04.743Z,82.70
2023-01-08T03:19:12.265Z,82.90
2023-01-08T03:21:17.504Z,83.20
2023-01-08T03:23:21.796Z,83.30
2023-01-08T03:25:27.342Z,83.20
2023-01-08T03:27:33.466Z,83.40
2023-01-08T03:29:37.851Z,83.40
2023-01-08T03:31:42.705Z,83.30
2023-01-08T03:33:46.368Z,83.20
2023-01-08T03:35:52.299Z,83.30
2023-01-08T03:37:59.624Z,83.00
2023-01-08T03:40:06.160Z,83.50
2023-01-08T03:42:12.540Z,83.50
2023-01-08T03:44:15.389Z,83.50
2023-01-08T03:46:32.481Z,83.60
2023-01-08T03:48:37.460Z,83.50
2023-01-08T03:50:41.686Z,83.60
2023-01-08T03:52:44.568Z,83.70
2023-01-08T03:54:47.272Z,84.00
2023-01-08T03:56:50.181Z,84.10
2023-01-08T03:58:52.885Z,84.20
2023-01-08T04:00:55.632Z,84.30
2023-01-08T04:02:58.468Z,84.50
2023-01-08T04:05:02.509Z,84.70
2023-01-08T04:07:05.393Z,84.80
2023-01-08T04:09:08.400Z,84.90
2023-01-08T04:11:11.090Z,84.90
2023-01-08T04:13:13.795Z,84.90
2023-01-08T04:15:17.251Z,85.00
2023-01-08T04:17:19.955Z,85.00
2023-01-08T04:19:22.711Z,84.90
2023-01-08T04:21:26.747Z,85.00
2023-01-08T04:23:29.496Z,85.00
2023-01-08T04:25:32.220Z,85.10
2023-01-08T04:27:35.112Z,85.10
2023-01-08T04:29:37.857Z,85.00
2023-01-08T04:31:40.678Z,85.10
2023-01-08T04:33:43.392Z,85.00
2023-01-08T04:35:46.139Z,84.90
2023-01-08T04:37:50.228Z,85.20
2023-01-08T04:39:52.922Z,85.30
2023-01-08T04:41:55.656Z,85.20
2023-01-08T04:43:58.371Z,85.30
2023-01-08T04:46:01.849Z,85.10
2023-01-08T04:48:04.707Z,85.00
2023-01-08T04:50:08.321Z,85.00
2023-01-08T04:52:11.083Z,84.90
2023-01-08T04:54:15.345Z,85.10
2023-01-08T04:56:18.070Z,84.80
2023-01-08T04:58:21.031Z,84.90
2023-01-08T05:00:23.739Z,84.90
2023-01-08T05:02:26.620Z,85.10
2023-01-08T05:04:29.678Z,85.40
2023-01-08T05:06:33.555Z,85.30
2023-01-08T05:08:36.323Z,85.40
2023-01-08T05:10:40.390Z,85.40
2023-01-08T05:12:43.112Z,85.60
2023-01-08T05:14:45.916Z,85.60
2023-01-08T05:16:48.633Z,85.70
2023-01-08T05:18:51.638Z,85.70
2023-01-08T05:20:54.437Z,85.70
2023-01-08T05:22:58.452Z,85.70
2023-01-08T05:25:01.216Z,85.70
2023-01-08T05:27:05.404Z,86.10
2023-01-08T05:29:08.150Z,85.90
2023-01-08T05:31:11.654Z,86.00
2023-01-08T05:33:14.434Z,86.20
2023-01-08T05:35:17.273Z,86.30
2023-01-08T05:37:19.976Z,86.30
2023-01-08T05:39:22.703Z,86.60
2023-01-08T05:41:25.427Z,86.90
2023-01-08T05:43:30.791Z,87.10
2023-01-08T05:45:33.888Z,87.00
2023-01-08T05:47:36.944Z,87.10
2023-01-08T05:49:39.671Z,87.00
2023-01-08T05:51:42.378Z,87.00
2023-01-08T05:53:45.238Z,87.10
2023-01-08T05:55:48.149Z,87.10
2023-01-08T05:57:51.039Z,87.40
2023-01-08T05:59:55.091Z,87.50
2023-01-08T06:01:57.839Z,87.70
2023-01-08T06:04:00.568Z,87.70
2023-01-08T06:06:04.994Z,88.00
2023-01-08T06:08:08.736Z,88.00
2023-01-08T06:10:11.591Z,88.00
2023-01-08T06:12:14.278Z,87.90
2023-01-08T06:14:17.438Z,87.70
2023-01-08T06:16:21.902Z,88.30
2023-01-08T06:18:24.710Z,88.40
2023-01-08T06:20:27.750Z,87.70
2023-01-08T06:22:32.342Z,87.70
2023-01-08T06:24:36.095Z,87.90
2023-01-08T06:26:38.848Z,87.70
2023-01-08T06:28:41.564Z,87.70
2023-01-08T06:30:44.345Z,87.70
2023-01-08T06:32:48.462Z,87.70
2023-01-08T06:34:51.175Z,87.60
2023-01-08T06:36:53.940Z,87.70
2023-01-08T06:38:56.670Z,87.60
2023-01-08T06:40:59.392Z,87.70
2023-01-08T06:43:03.013Z,87.50
2023-01-08T06:45:06.720Z,87.70
2023-01-08T06:47:09.428Z,87.70
2023-01-08T06:49:14.785Z,87.70
2023-01-08T06:51:17.544Z,87.60
2023-01-08T06:53:20.442Z,87.60
2023-01-08T06:55:24.850Z,87.50
2023-01-08T06:57:27.628Z,87.40
2023-01-08T06:59:30.411Z,87.60
2023-01-08T07:01:33.310Z,87.70
2023-01-08T07:03:36.204Z,87.90
2023-01-08T07:05:40.315Z,87.90
2023-01-08T07:07:43.222Z,87.70
2023-01-08T07:09:46.091Z,87.70
2023-01-08T07:11:49.083Z,87.70
2023-01-08T07:13:52.243Z,87.80
2023-01-08T07:15:56.088Z,87.90
2023-01-08T07:17:58.848Z,87.80
2023-01-08T07:20:01.590Z,87.90
2023-01-08T07:22:05.711Z,87.90
2023-01-08T07:24:08.881Z,88.00
2023-01-08T07:26:11.599Z,88.00
2023-01-08T07:28:14.398Z,87.90
2023-01-08T07:30:28.785Z,87.80
2023-01-08T07:32:32.790Z,88.00
2023-01-08T07:34:36.404Z,87.80
2023-01-08T07:36:39.105Z,87.80
2023-01-08T07:38:43.420Z,87.90
2023-01-08T07:40:46.139Z,87.70
2023-01-08T07:42:49.097Z,87.80
2023-01-08T07:44:51.817Z,87.70
2023-01-08T07:46:54.608Z,87.60
2023-01-08T07:48:57.943Z,87.70
2023-01-08T07:51:04.132Z,87.80
2023-01-08T07:53:06.870Z,87.80
2023-01-08T07:55:11.258Z,87.90
2023-01-08T07:57:13.955Z,87.80
2023-01-08T07:59:16.637Z,87.70
2023-01-08T08:01:19.538Z,87.50
2023-01-08T08:03:22.571Z,87.70
2023-01-08T08:05:25.285Z,87.80
2023-01-08T08:07:28.074Z,87.70
2023-01-08T08:09:30.772Z,87.90
2023-01-08T08:11:34.835Z,87.80
2023-01-08T08:13:42.399Z,87.90
2023-01-08T08:15:45.252Z,87.80
2023-01-08T08:17:48.827Z,87.80
2023-01-08T08:19:51.569Z,87.70
2023-01-08T08:21:54.342Z,87.80
2023-01-08T08:23:57.763Z,87.80
2023-01-08T08:26:02.647Z,88.00
2023-01-08T08:28:07.403Z,87.80
2023-01-08T08:30:11.695Z,87.80
2023-01-08T08:32:14.451Z,87.90
2023-01-08T08:34:17.148Z,87.90
2023-01-08T08:36:19.853Z,87.80
2023-01-08T08:38:24.062Z,88.00
2023-01-08T08:40:28.008Z,88.10
2023-01-08T08:42:30.995Z,88.10
2023-01-08T08:44:35.037Z,88.10
2023-01-08T08:46:37.827Z,88.00
2023-01-08T08:48:40.540Z,88.00
2023-01-08T08:50:43.556Z,88.00
2023-01-08T08:52:46.887Z,88.00
2023-01-08T08:54:49.558Z,88.10
2023-01-08T08:56:52.250Z,88.00
2023-01-08T08:58:54.954Z,88.10
2023-01-08T09:01:03.556Z,88.20
2023-01-08T09:03:06.542Z,88.30
2023-01-08T09:05:10.027Z,88.30
2023-01-08T09:07:12.726Z,88.30
2023-01-08T09:09:15.928Z,88.40
2023-01-08T09:11:18.681Z,88.10
2023-01-08T09:13:21.625Z,88.40
2023-01-08T09:15:24.481Z,88.30
2023-01-08T09:17:28.553Z,88.20
2023-01-08T09:19:31.361Z,88.30
2023-01-08T09:21:34.345Z,88.40
2023-01-08T09:23:38.653Z,88.50
2023-01-08T09:25:41.592Z,88.70
2023-01-08T09:27:44.521Z,88.50
2023-01-08T09:29:47.340Z,88.50
2023-01-08T09:31:50.195Z,88.40
2023-01-08T09:33:54.313Z,88.40
2023-01-08T09:35:57.064Z,88.50
2023-01-08T09:38:00.248Z,88.40
2023-01-08T09:40:03.504Z,88.50
2023-01-08T09:42:07.103Z,88.70
2023-01-08T09:44:16.239Z,88.80
2023-01-08T09:46:21.913Z,88.90
2023-01-08T09:48:28.927Z,88.90
2023-01-08T09:50:35.641Z,88.80
2023-01-08T09:52:39.395Z,88.70
2023-01-08T09:54:42.906Z,88.60
2023-01-08T09:56:46.211Z,88.50
2023-01-08T09:58:51.421Z,88.40
2023-01-08T10:00:55.133Z,88.60
2023-01-08T10:02:58.841Z,88.60
2023-01-08T10:05:03.858Z,88.70
2023-01-08T10:07:18.868Z,88.70
2023-01-08T10:09:26.523Z,88.70
2023-01-08T10:11:34.273Z,88.80
2023-01-08T10:13:40.574Z,88.90
2023-01-08T10:15:43.550Z,88.70
2023-01-08T10:17:50.233Z,88.70
2023-01-08T10:19:53.018Z,88.70
2023-01-08T10:21:57.570Z,88.60
2023-01-08T10:24:01.587Z,88.70
2023-01-08T10:26:04.644Z,88.70
2023-01-08T10:28:07.413Z,88.90
2023-01-08T10:30:17.316Z,89.20
2023-01-08T10:32:27.420Z,89.20
2023-01-08T10:34:40.417Z,89.10
2023-01-08T10:36:43.913Z,89.00
2023-01-08T10:39:00.473Z,88.70
2023-01-08T10:41:07.995Z,88.50
2023-01-08T10:43:16.595Z,88.80
2023-01-08T10:45:22.716Z,89.00
2023-01-08T10:47:28.742Z,89.00
2023-01-08T10:49:34.164Z,88.90
2023-01-08T10:51:37.267Z,88.90
2023-01-08T10:53:41.166Z,88.90
2023-01-08T10:55:43.909Z,89.00
2023-01-08T10:58:00.125Z,89.00
2023-01-08T11:00:02.912Z,89.10
2023-01-08T11:02:17.225Z,88.90
2023-01-08T11:04:25.134Z,88.70
2023-01-08T11:06:31.574Z,88.80
2023-01-08T11:08:34.409Z,88.80
2023-01-08T11:10:38.238Z,88.80
2023-01-08T11:12:42.395Z,88.70
2023-01-08T11:14:47.406Z,88.50
2023-01-08T11:16:50.548Z,88.90
2023-01-08T11:18:53.284Z,89.00
2023-01-08T11:21:09.002Z,89.10
2023-01-08T11:23:18.102Z,89.10
2023-01-08T11:25:28.023Z,89.10
2023-01-08T11:27:33.390Z,89.00
2023-01-08T11:29:44.483Z,88.90
2023-01-08T11:31:53.360Z,89.00
2023-01-08T11:34:04.372Z,89.30
2023-01-08T11:36:15.015Z,89.40
2023-01-08T11:38:18.103Z,89.30
2023-01-08T11:40:32.419Z,89.10
2023-01-08T11:42:48.433Z,89.10
2023-01-08T11:45:07.332Z,89.30
2023-01-08T11:47:18.977Z,89.00
2023-01-08T11:49:45.192Z,89.60
2023-01-08T11:52:05.722Z,89.00
2023-01-08T11:54:23.866Z,88.80
2023-01-08T11:56:41.065Z,88.80
2023-01-08T11:58:56.728Z,88.90
2023-01-08T12:01:41.271Z,89.00
2023-01-08T12:03:50.470Z,88.60
2023-01-08T12:06:03.607Z,88.70
2023-01-08T12:08:11.443Z,88.80
2023-01-08T12:10:24.104Z,88.70
2023-01-08T12:12:42.222Z,88.70
2023-01-08T12:14:55.433Z,88.80
2023-01-08T12:17:17.696Z,88.80
2023-01-08T12:19:39.459Z,88.60
2023-01-08T12:21:54.155Z,88.80
2023-01-08T12:24:12.424Z,88.60
2023-01-08T12:26:20.834Z,88.50
2023-01-08T12:28:40.626Z,88.90
2023-01-08T12:31:00.712Z,88.70
2023-01-08T12:33:06.648Z,88.60
2023-01-08T12:35:15.042Z,88.70
2023-01-08T12:37:23.616Z,88.60
2023-01-08T12:39:29.674Z,88.60
2023-01-08T12:41:36.268Z,88.80
2023-01-08T12:43:49.250Z,88.70
2023-01-08T12:45:55.186Z,88.50
2023-01-08T12:48:05.774Z,88.20
2023-01-08T12:50:24.722Z,88.30
2023-01-08T12:52:36.673Z,88.30
2023-01-08T12:54:49.305Z,88.10
2023-01-08T12:56:57.002Z,88.20
2023-01-08T12:59:13.359Z,88.10
2023-01-08T13:01:29.157Z,88.00
2023-01-08T13:03:33.834Z,87.80
2023-01-08T13:05:38.661Z,88.50
2023-01-08T13:07:46.642Z,87.70
2023-01-08T13:09:56.786Z,87.70
2023-01-08T13:12:01.457Z,87.90
2023-01-08T13:14:09.722Z,87.80
2023-01-08T13:16:24.482Z,87.90
2023-01-08T13:18:27.418Z,87.70
2023-01-08T13:20:31.803Z,88.10
2023-01-08T13:22:53.437Z,88.40
2023-01-08T13:25:10.894Z,88.20
2023-01-08T13:27:29.289Z,87.70
2023-01-08T13:29:41.715Z,87.50
2023-01-08T13:31:45.787Z,87.50
2023-01-08T13:33:52.637Z,87.20
2023-01-08T13:36:20.854Z,87.50
2023-01-08T13:38:24.935Z,87.50
2023-01-08T13:40:38.606Z,87.60
2023-01-08T13:42:43.479Z,87.20
2023-01-08T13:44:51.075Z,86.80
2023-01-08T13:46:56.024Z,86.90
2023-01-08T13:49:03.118Z,87.00
2023-01-08T13:51:06.506Z,87.10
2023-01-08T13:53:15.480Z,86.70
2023-01-08T13:55:24.535Z,86.70
2023-01-08T13:57:32.531Z,86.70
2023-01-08T13:59:41.697Z,86.20
2023-01-08T14:01:53.424Z,86.40
2023-01-08T14:03:56.261Z,86.50
2023-01-08T14:06:07.756Z,86.50
2023-01-08T14:08:22.804Z,86.70
2023-01-08T14:10:27.900Z,86.60
2023-01-08T14:12:30.883Z,86.60
2023-01-08T14:14:33.638Z,86.50
2023-01-08T14:16:38.513Z,86.20
2023-01-08T14:18:42.003Z,86.50
2023-01-08T14:20:48.963Z,86.20
2023-01-08T14:22:51.985Z,86.30
2023-01-08T14:24:57.349Z,86.20
2023-01-08T14:27:01.469Z,85.80
2023-01-08T14:29:14.961Z,85.30
2023-01-08T14:31:22.146Z,85.70
2023-01-08T14:33:27.759Z,85.90
2023-01-08T14:35:34.113Z,85.80
2023-01-08T14:37:37.013Z,85.80
2023-01-08T14:39:39.730Z,85.80
2023-01-08T14:42:00.541Z,85.70
2023-01-08T14:44:04.705Z,85.50
2023-01-08T14:46:22.569Z,85.30
2023-01-08T14:48:29.867Z,85.90
2023-01-08T14:50:36.659Z,85.50
2023-01-08T14:52:41.802Z,85.30
2023-01-08T14:54:48.274Z,85.50
2023-01-08T14:56:58.410Z,85.60
2023-01-08T14:59:01.727Z,85.10
2023-01-08T15:01:08.526Z,85.40
2023-01-08T15:03:30.755Z,85.40
2023-01-08T15:05:34.237Z,85.40
2023-01-08T15:07:37.277Z,85.40
2023-01-08T15:09:40.349Z,85.40
2023-01-08T15:11:53.255Z,85.40
2023-01-08T15:13:57.382Z,85.50
2023-01-08T15:16:03.878Z,85.30
2023-01-08T15:18:11.700Z,85.30
2023-01-08T15:20:18.649Z,85.20
2023-01-08T15:22:25.193Z,85.10
2023-01-08T15:24:34.390Z,85.10
2023-01-08T15:26:42.667Z,85.20
2023-01-08T15:28:49.172Z,85.10
2023-01-08T15:30:52.055Z,84.70
2023-01-08T15:32:55.088Z,84.70
2023-01-08T15:34:59.391Z,84.60
2023-01-08T15:37:02.487Z,85.10
2023-01-08T15:39:05.929Z,84.90
2023-01-08T15:41:11.083Z,85.10
2023-01-08T15:43:14.306Z,84.90
2023-01-08T15:45:19.420Z,85.20
2023-01-08T15:47:22.132Z,84.90
2023-01-08T15:49:25.188Z,85.60
2023-01-08T15:51:31.016Z,85.20
2023-01-08T15:53:33.842Z,85.00
2023-01-08T15:55:37.699Z,84.60
2023-01-08T15:57:40.769Z,84.80
2023-01-08T15:59:43.510Z,84.60
2023-01-08T16:01:46.437Z,84.80
2023-01-08T16:03:49.793Z,84.80
2023-01-08T16:05:52.550Z,84.80
2023-01-08T16:08:00.127Z,84.80
2023-01-08T16:10:02.962Z,84.90
2023-01-08T16:12:06.449Z,85.00
2023-01-08T16:14:09.301Z,85.00
2023-01-08T16:16:13.916Z,84.90
2023-01-08T16:18:16.817Z,85.10
2023-01-08T16:20:19.853Z,85.00
2023-01-08T16:22:22.932Z,85.10
2023-01-08T16:24:27.318Z,85.40
2023-01-08T16:26:30.179Z,85.20
2023-01-08T16:28:32.904Z,85.20
2023-01-08T16:30:36.612Z,85.40
2023-01-08T16:32:39.405Z,85.50
2023-01-08T16:34:42.106Z,85.50
2023-01-08T16:36:44.883Z,85.70
2023-01-08T16:38:49.285Z,85.60
2023-01-08T16:40:53.475Z,85.70
2023-01-08T16:43:02.832Z,85.50
2023-01-08T16:45:06.997Z,85.50
2023-01-08T16:47:09.828Z,85.70
2023-01-08T16:49:12.561Z,85.70
2023-01-08T16:51:21.324Z,85.60
2023-01-08T16:53:24.056Z,85.60
2023-01-08T16:55:26.739Z,85.80
2023-01-08T16:57:31.001Z,85.80
2023-01-08T16:59:33.956Z,85.70
2023-01-08T17:01:36.807Z,85.60
2023-01-08T17:03:39.984Z,85.80
2023-01-08T17:05:42.754Z,85.80
2023-01-08T17:07:45.539Z,85.60
2023-01-08T17:09:48.239Z,85.40
2023-01-08T17:11:51.119Z,85.60
2023-01-08T17:13:55.233Z,85.80
2023-01-08T17:15:59.862Z,85.90
2023-01-08T17:18:02.735Z,85.90
2023-01-08T17:20:06.330Z,85.80
2023-01-08T17:22:09.126Z,85.80
2023-01-08T17:24:12.379Z,85.80
2023-01-08T17:26:17.715Z,85.60
2023-01-08T17:28:20.449Z,85.70
2023-01-08T17:30:24.507Z,85.60
2023-01-08T17:32:29.599Z,85.60
2023-01-08T17:34:32.357Z,85.70
2023-01-08T17:36:36.132Z,85.70
2023-01-08T17:38:38.931Z,85.70
2023-01-08T17:40:41.655Z,85.80
2023-01-08T17:42:43.385Z,85.90
2023-01-08T17:44:46.157Z,86.10
2023-01-08T17:46:50.250Z,86.30
2023-01-08T17:48:52.943Z,86.40
2023-01-08T17:50:55.699Z,86.40
2023-01-08T17:52:58.704Z,86.40
2023-01-08T17:55:01.499Z,86.30
2023-01-08T17:57:04.284Z,86.40
2023-01-08T17:59:07.034Z,86.70
2023-01-08T18:01:11.628Z,86.60
2023-01-08T18:03:15.954Z,86.70
2023-01-08T18:05:18.782Z,86.70
2023-01-08T18:07:23.335Z,86.70
2023-01-08T18:09:26.341Z,86.80
2023-01-08T18:11:29.108Z,86.80
2023-01-08T18:13:32.041Z,86.80
2023-01-08T18:15:35.280Z,86.80
2023-01-08T18:17:37.967Z,86.90
2023-01-08T18:19:42.447Z,86.60
2023-01-08T18:21:45.553Z,86.80
2023-01-08T18:23:48.432Z,86.80
2023-01-08T18:25:51.151Z,86.80
2023-01-08T18:27:54.151Z,86.70
2023-01-08T18:29:56.900Z,86.70
2023-01-08T18:31:59.702Z,86.70
2023-01-08T18:34:03.723Z,87.30
2023-01-08T18:36:10.415Z,86.70
2023-01-08T18:38:15.731Z,86.70
2023-01-08T18:40:18.741Z,86.70
2023-01-08T18:42:27.318Z,86.60
2023-01-08T18:44:30.038Z,86.50
2023-01-08T18:46:33.021Z,86.50
2023-01-08T18:48:36.431Z,86.50
2023-01-08T18:50:40.404Z,86.30
2023-01-08T18:52:44.508Z,86.10
2023-01-08T18:54:47.193Z,86.00
2023-01-08T18:56:51.091Z,86.00
2023-01-08T18:58:53.797Z,86.00
2023-01-08T19:00:56.522Z,85.90
2023-01-08T19:02:59.361Z,85.90
2023-01-08T19:05:02.392Z,85.80
2023-01-08T19:07:05.124Z,85.80
2023-01-08T19:09:09.167Z,85.90
2023-01-08T19:11:13.282Z,86.10
2023-01-08T19:13:15.966Z,86.00
2023-01-08T19:15:18.749Z,86.00
2023-01-08T19:17:21.760Z,86.10
2023-01-08T19:19:24.749Z,86.00
2023-01-08T19:21:27.513Z,86.20
2023-01-08T19:23:30.573Z,86.30
2023-01-08T19:25:34.642Z,86.30
2023-01-08T19:27:37.479Z,86.30
2023-01-08T19:29:40.335Z,86.10
2023-01-08T19:31:43.127Z,86.20
2023-01-08T19:33:47.137Z,86.30
2023-01-08T19:35:50.251Z,86.20
2023-01-08T19:37:53.091Z,86.30
2023-01-08T19:40:00.373Z,86.30
2023-01-08T19:42:22.188Z,86.30
2023-01-08T19:44:24.984Z,86.30
2023-01-08T19:46:28.705Z,86.30
2023-01-08T19:48:31.439Z,86.40
2023-01-08T19:50:35.170Z,86.30
2023-01-08T19:52:37.881Z,86.40
2023-01-08T19:54:40.647Z,86.40
2023-01-08T19:56:43.363Z,86.40
2023-01-08T19:58:47.386Z,86.40
2023-01-08T20:00:50.207Z,86.60
2023-01-08T20:02:53.039Z,86.50
2023-01-08T20:04:55.840Z,86.40
2023-01-08T20:06:59.284Z,86.20
2023-01-08T20:09:02.040Z,86.30
2023-01-08T20:11:09.548Z,86.10
2023-01-08T20:13:12.432Z,86.10
2023-01-08T20:15:18.166Z,86.30
2023-01-08T20:17:25.031Z,86.40
2023-01-08T20:19:28.677Z,86.40
2023-01-08T20:21:32.624Z,86.30
2023-01-08T20:23:36.805Z,86.20
2023-01-08T20:25:39.599Z,86.40
2023-01-08T20:27:42.489Z,86.40
2023-01-08T20:29:45.271Z,86.40
2023-01-08T20:31:56.656Z,86.40
2023-01-08T20:34:00.257Z,86.30
2023-01-08T20:36:03.235Z,86.20
2023-01-08T20:38:05.917Z,86.10
2023-01-08T20:40:12.433Z,86.00
2023-01-08T20:42:17.801Z,86.20
2023-01-08T20:44:24.911Z,86.20
2023-01-08T20:46:29.667Z,86.50
2023-01-08T20:48:37.055Z,86.30
2023-01-08T20:50:46.837Z,86.40
2023-01-08T20:52:49.575Z,86.60
2023-01-08T20:54:53.009Z,86.70
2023-01-08T20:56:56.597Z,86.50
2023-01-08T20:58:59.417Z,86.20
2023-01-08T21:01:07.089Z,86.00
2023-01-08T21:03:10.462Z,86.30
2023-01-08T21:05:14.541Z,86.30
2023-01-08T21:07:17.320Z,86.20
2023-01-08T21:09:20.053Z,86.20
2023-01-08T21:11:23.783Z,86.20
2023-01-08T21:13:26.570Z,86.30
2023-01-08T21:15:29.630Z,86.30
2023-01-08T21:17:32.304Z,86.40
2023-01-08T21:19:35.049Z,86.40
2023-01-08T21:21:41.110Z,86.50
2023-01-08T21:23:43.980Z,86.60
2023-01-08T21:25:46.720Z,86.60
2023-01-08T21:27:49.407Z,86.60
2023-01-08T21:29:52.355Z,86.70
2023-01-08T21:31:55.188Z,86.70
2023-01-08T21:34:00.168Z,86.70
2023-01-08T21:36:04.551Z,86.70
2023-01-08T21:38:08.567Z,86.90
2023-01-08T21:40:12.508Z,86.90
2023-01-08T21:42:32.963Z,86.90
2023-01-08T21:44:53.627Z,86.90
2023-01-08T21:46:59.195Z,86.60
2023-01-08T21:49:01.919Z,86.50
2023-01-08T21:51:04.727Z,86.70
2023-01-08T21:53:34.774Z,86.90
2023-01-08T21:55:38.838Z,87.10
2023-01-08T21:57:41.600Z,87.00
2023-01-08T21:59:44.985Z,87.00
2023-01-08T22:01:47.827Z,87.00
2023-01-08T22:03:50.667Z,87.00
2023-01-08T22:06:00.895Z,86.80
2023-01-08T22:08:05.257Z,86.70
2023-01-08T22:10:11.032Z,86.80
2023-01-08T22:12:14.781Z,86.80
2023-01-08T22:14:17.895Z,86.60
2023-01-08T22:16:20.959Z,86.60
2023-01-08T22:18:23.664Z,86.50
2023-01-08T22:20:26.375Z,86.50
2023-01-08T22:22:29.229Z,86.30
2023-01-08T22:24:32.133Z,86.30
2023-01-08T22:26:36.193Z,86.20
2023-01-08T22:28:39.608Z,86.40
2023-01-08T22:30:42.303Z,86.30
2023-01-08T22:32:45.004Z,86.20
2023-01-08T22:34:47.799Z,86.10
2023-01-08T22:36:51.445Z,85.70
2023-01-08T22:38:54.216Z,86.00
2023-01-08T22:40:56.995Z,86.30
2023-01-08T22:43:01.037Z,86.20
2023-01-08T22:45:03.851Z,85.90
2023-01-08T22:47:08.411Z,85.60
2023-01-08T22:49:12.433Z,85.90
2023-01-08T22:51:15.132Z,86.10
2023-01-08T22:53:18.003Z,86.00
2023-01-08T22:55:20.864Z,86.00
2023-01-08T22:57:23.570Z,86.00
2023-01-08T22:59:27.621Z,86.10
2023-01-08T23:01:30.512Z,86.40
2023-01-08T23:03:33.352Z,86.30
2023-01-08T23:05:36.871Z,86.40
2023-01-08T23:07:39.583Z,86.60
2023-01-08T23:09:42.405Z,86.70
2023-01-08T23:11:45.197Z,86.40
2023-01-08T23:13:49.025Z,86.40
2023-01-08T23:15:53.059Z,86.50
2023-01-08T23:17:55.794Z,86.30
2023-01-08T23:19:58.493Z,86.50
2023-01-08T23:22:01.657Z,86.60
2023-01-08T23:24:04.636Z,86.80
2023-01-08T23:26:09.300Z,87.00
2023-01-08T23:28:11.998Z,86.80
2023-01-08T23:30:15.068Z,86.90
2023-01-08T23:32:19.132Z,87.00
2023-01-08T23:34:21.858Z,86.70
2023-01-08T23:36:25.230Z,86.90
2023-01-08T23:38:27.951Z,87.00
2023-01-08T23:40:30.748Z,87.10
2023-01-08T23:42:33.473Z,87.10
2023-01-08T23:44:36.236Z,87.10
2023-01-08T23:46:38.949Z,87.10
2023-01-08T23:48:42.999Z,87.10
2023-01-08T23:50:45.701Z,87.10
2023-01-08T23:52:48.411Z,86.80
2023-01-08T23:54:51.151Z,87.10
2023-01-08T23:56:53.963Z,87.10
2023-01-08T23:58:57.573Z,87.10
